Kingfield, Maine
Current Conditions -  °F | °C
As of 12:55 AM on Sunday 23 Nov 2014 (Local Time) from KWVL Reporting Station
Overcast Overcast  
Wind Chill: 32°   Ceiling: 3800
Heat Index: 36°   Visibility: 10mi
Dew Point: 14°   Wind: 5mph
Humidity: 41%   Direction: 210°SSW
Pressure: 29.9"   Gusts: NA
Location:  44.96°N, 70.15°W
Report Text: KWVL 230555Z 21004KT 10SM OVC038 02/M10 A2990 RMK AO1 10020 21010 54000
Loading
Personal Weather Stations






























Interactive Weather Map New forecast layout! Learn more

10-Day Weather Forecast

Advertisements
Track Severe Weather on mobile